sensor_id;sensor_type;location;lat;lon;timestamp;P1;durP1;ratioP1;P2;durP2;ratioP2
27402;SDS011;14862;49.494;8.530;2022-09-29T00:00:36;12.43;;;7.22;;
27402;SDS011;14862;49.494;8.530;2022-09-29T00:03:02;15.68;;;9.27;;
27402;SDS011;14862;49.494;8.530;2022-09-29T00:05:27;13.05;;;8.82;;
27402;SDS011;14862;49.494;8.530;2022-09-29T00:07:53;14.13;;;9.30;;
27402;SDS011;14862;49.494;8.530;2022-09-29T00:10:18;15.47;;;9.37;;
27402;SDS011;14862;49.494;8.530;2022-09-29T00:12:43;18.13;;;8.80;;
27402;SDS011;14862;49.494;8.530;2022-09-29T00:15:09;16.98;;;9.10;;
27402;SDS011;14862;49.494;8.530;2022-09-29T00:17:34;15.38;;;10.18;;
27402;SDS011;14862;49.494;8.530;2022-09-29T00:19:59;16.50;;;10.55;;
27402;SDS011;14862;49.494;8.530;2022-09-29T00:22:25;14.95;;;10.45;;
27402;SDS011;14862;49.494;8.530;2022-09-29T00:24:50;18.42;;;9.68;;
27402;SDS011;14862;49.494;8.530;2022-09-29T00:27:15;18.45;;;9.70;;
27402;SDS011;14862;49.494;8.530;2022-09-29T00:29:41;18.35;;;10.15;;
27402;SDS011;14862;49.494;8.530;2022-09-29T00:32:06;17.40;;;10.27;;
27402;SDS011;14862;49.494;8.530;2022-09-29T00:34:32;19.48;;;10.50;;
27402;SDS011;14862;49.494;8.530;2022-09-29T00:36:57;18.85;;;10.85;;
27402;SDS011;14862;49.494;8.530;2022-09-29T00:39:22;19.60;;;10.15;;
27402;SDS011;14862;49.494;8.530;2022-09-29T00:41:47;19.35;;;10.00;;
27402;SDS011;14862;49.494;8.530;2022-09-29T00:49:19;19.80;;;11.13;;
27402;SDS011;14862;49.494;8.530;2022-09-29T00:51:52;20.73;;;11.55;;
27402;SDS011;14862;49.494;8.530;2022-09-29T00:54:20;21.30;;;12.05;;
27402;SDS011;14862;49.494;8.530;2022-09-29T00:56:45;25.10;;;12.95;;
27402;SDS011;14862;49.494;8.530;2022-09-29T00:59:14;28.13;;;15.18;;
27402;SDS011;14862;49.494;8.530;2022-09-29T01:01:41;36.47;;;17.40;;
27402;SDS011;14862;49.494;8.530;2022-09-29T01:04:08;41.70;;;20.63;;
27402;SDS011;14862;49.494;8.530;2022-09-29T01:06:36;41.50;;;19.65;;
27402;SDS011;14862;49.494;8.530;2022-09-29T01:09:06;62.47;;;24.23;;
27402;SDS011;14862;49.494;8.530;2022-09-29T01:11:32;59.38;;;27.23;;
27402;SDS011;14862;49.494;8.530;2022-09-29T01:13:57;53.42;;;25.65;;
27402;SDS011;14862;49.494;8.530;2022-09-29T01:16:28;56.38;;;25.27;;
27402;SDS011;14862;49.494;8.530;2022-09-29T01:18:53;51.38;;;24.75;;
27402;SDS011;14862;49.494;8.530;2022-09-29T01:29:12;40.72;;;22.38;;
27402;SDS011;14862;49.494;8.530;2022-09-29T01:39:37;38.22;;;20.98;;
27402;SDS011;14862;49.494;8.530;2022-09-29T01:42:18;38.45;;;20.88;;
27402;SDS011;14862;49.494;8.530;2022-09-29T01:44:58;34.55;;;20.63;;
27402;SDS011;14862;49.494;8.530;2022-09-29T01:47:27;41.90;;;22.77;;
27402;SDS011;14862;49.494;8.530;2022-09-29T01:49:59;56.78;;;22.77;;
27402;SDS011;14862;49.494;8.530;2022-09-29T01:52:27;48.28;;;23.17;;
27402;SDS011;14862;49.494;8.530;2022-09-29T01:55:37;43.50;;;24.27;;
27402;SDS011;14862;49.494;8.530;2022-09-29T01:57:43;56.33;;;26.00;;
27402;SDS011;14862;49.494;8.530;2022-09-29T02:00:13;53.95;;;26.27;;
27402;SDS011;14862;49.494;8.530;2022-09-29T02:07:40;56.00;;;25.13;;
27402;SDS011;14862;49.494;8.530;2022-09-29T02:10:13;52.97;;;27.70;;
27402;SDS011;14862;49.494;8.530;2022-09-29T02:12:40;57.30;;;29.42;;
27402;SDS011;14862;49.494;8.530;2022-09-29T02:15:07;56.03;;;29.17;;
27402;SDS011;14862;49.494;8.530;2022-09-29T02:17:36;62.38;;;30.02;;
27402;SDS011;14862;49.494;8.530;2022-09-29T02:20:03;58.45;;;30.63;;
27402;SDS011;14862;49.494;8.530;2022-09-29T02:22:29;61.17;;;30.10;;
27402;SDS011;14862;49.494;8.530;2022-09-29T02:24:54;54.28;;;29.10;;
27402;SDS011;14862;49.494;8.530;2022-09-29T02:27:23;50.80;;;29.33;;
27402;SDS011;14862;49.494;8.530;2022-09-29T02:29:48;59.10;;;30.50;;
27402;SDS011;14862;49.494;8.530;2022-09-29T02:32:13;53.10;;;27.67;;
27402;SDS011;14862;49.494;8.530;2022-09-29T02:34:40;51.67;;;26.48;;
27402;SDS011;14862;49.494;8.530;2022-09-29T02:40:09;52.25;;;26.17;;
27402;SDS011;14862;49.494;8.530;2022-09-29T02:45:20;50.03;;;25.60;;
27402;SDS011;14862;49.494;8.530;2022-09-29T02:57:59;56.05;;;28.40;;
27402;SDS011;14862;49.494;8.530;2022-09-29T03:00:26;52.80;;;28.17;;
27402;SDS011;14862;49.494;8.530;2022-09-29T03:02:52;49.65;;;27.30;;
27402;SDS011;14862;49.494;8.530;2022-09-29T03:05:18;50.23;;;26.07;;
27402;SDS011;14862;49.494;8.530;2022-09-29T03:07:44;53.97;;;27.40;;
27402;SDS011;14862;49.494;8.530;2022-09-29T03:10:09;49.42;;;25.27;;
27402;SDS011;14862;49.494;8.530;2022-09-29T03:12:35;47.85;;;26.15;;
27402;SDS011;14862;49.494;8.530;2022-09-29T03:15:01;47.83;;;23.95;;
27402;SDS011;14862;49.494;8.530;2022-09-29T03:17:26;49.17;;;24.85;;
27402;SDS011;14862;49.494;8.530;2022-09-29T03:19:51;52.93;;;25.40;;
27402;SDS011;14862;49.494;8.530;2022-09-29T03:22:16;52.33;;;24.35;;
27402;SDS011;14862;49.494;8.530;2022-09-29T03:24:43;44.90;;;25.50;;
27402;SDS011;14862;49.494;8.530;2022-09-29T03:27:08;46.88;;;25.50;;
27402;SDS011;14862;49.494;8.530;2022-09-29T03:29:37;46.75;;;24.73;;
27402;SDS011;14862;49.494;8.530;2022-09-29T03:32:02;47.72;;;25.10;;
27402;SDS011;14862;49.494;8.530;2022-09-29T03:34:28;37.03;;;22.15;;
27402;SDS011;14862;49.494;8.530;2022-09-29T03:36:53;44.80;;;21.60;;
27402;SDS011;14862;49.494;8.530;2022-09-29T03:39:18;38.47;;;22.05;;
27402;SDS011;14862;49.494;8.530;2022-09-29T03:41:44;35.22;;;21.25;;
27402;SDS011;14862;49.494;8.530;2022-09-29T03:44:10;35.20;;;20.77;;
27402;SDS011;14862;49.494;8.530;2022-09-29T03:46:35;37.60;;;21.27;;
27402;SDS011;14862;49.494;8.530;2022-09-29T03:49:00;31.13;;;18.42;;
27402;SDS011;14862;49.494;8.530;2022-09-29T03:51:25;33.13;;;18.65;;
27402;SDS011;14862;49.494;8.530;2022-09-29T03:53:51;37.63;;;18.63;;
27402;SDS011;14862;49.494;8.530;2022-09-29T03:56:16;32.93;;;18.40;;
27402;SDS011;14862;49.494;8.530;2022-09-29T03:58:41;34.20;;;19.00;;
27402;SDS011;14862;49.494;8.530;2022-09-29T04:01:06;34.30;;;17.67;;
27402;SDS011;14862;49.494;8.530;2022-09-29T04:03:32;30.60;;;18.65;;
27402;SDS011;14862;49.494;8.530;2022-09-29T04:05:57;42.58;;;20.35;;
27402;SDS011;14862;49.494;8.530;2022-09-29T04:08:22;35.67;;;19.50;;
27402;SDS011;14862;49.494;8.530;2022-09-29T04:10:47;38.00;;;19.95;;
27402;SDS011;14862;49.494;8.530;2022-09-29T04:13:13;39.10;;;20.13;;
27402;SDS011;14862;49.494;8.530;2022-09-29T04:15:38;44.17;;;20.50;;
27402;SDS011;14862;49.494;8.530;2022-09-29T04:18:03;39.47;;;19.00;;
27402;SDS011;14862;49.494;8.530;2022-09-29T04:20:29;43.63;;;20.23;;
27402;SDS011;14862;49.494;8.530;2022-09-29T04:22:55;39.38;;;19.38;;
27402;SDS011;14862;49.494;8.530;2022-09-29T04:25:20;37.10;;;17.60;;
27402;SDS011;14862;49.494;8.530;2022-09-29T04:27:45;36.08;;;19.17;;
27402;SDS011;14862;49.494;8.530;2022-09-29T04:30:11;35.05;;;19.27;;
27402;SDS011;14862;49.494;8.530;2022-09-29T04:32:36;40.88;;;18.65;;
27402;SDS011;14862;49.494;8.530;2022-09-29T04:35:01;36.65;;;17.95;;
27402;SDS011;14862;49.494;8.530;2022-09-29T04:37:27;38.22;;;19.30;;
27402;SDS011;14862;49.494;8.530;2022-09-29T04:39:52;35.60;;;18.08;;
27402;SDS011;14862;49.494;8.530;2022-09-29T04:42:18;35.05;;;17.73;;
27402;SDS011;14862;49.494;8.530;2022-09-29T04:44:43;36.97;;;17.70;;
27402;SDS011;14862;49.494;8.530;2022-09-29T04:47:09;31.33;;;17.50;;
27402;SDS011;14862;49.494;8.530;2022-09-29T04:49:34;33.63;;;16.73;;
27402;SDS011;14862;49.494;8.530;2022-09-29T04:51:59;42.05;;;18.83;;
27402;SDS011;14862;49.494;8.530;2022-09-29T04:54:24;38.75;;;18.23;;
27402;SDS011;14862;49.494;8.530;2022-09-29T04:56:53;34.50;;;17.35;;
27402;SDS011;14862;49.494;8.530;2022-09-29T04:59:18;34.08;;;16.35;;
27402;SDS011;14862;49.494;8.530;2022-09-29T05:01:44;42.83;;;19.27;;
27402;SDS011;14862;49.494;8.530;2022-09-29T05:04:09;33.17;;;16.65;;
27402;SDS011;14862;49.494;8.530;2022-09-29T05:06:34;34.75;;;18.40;;
27402;SDS011;14862;49.494;8.530;2022-09-29T05:09:03;33.90;;;17.83;;
27402;SDS011;14862;49.494;8.530;2022-09-29T05:11:28;38.03;;;17.70;;
27402;SDS011;14862;49.494;8.530;2022-09-29T05:13:54;45.78;;;20.05;;
27402;SDS011;14862;49.494;8.530;2022-09-29T05:16:19;47.37;;;21.30;;
27402;SDS011;14862;49.494;8.530;2022-09-29T05:18:44;48.28;;;21.15;;
27402;SDS011;14862;49.494;8.530;2022-09-29T05:21:09;45.42;;;22.77;;
27402;SDS011;14862;49.494;8.530;2022-09-29T05:23:34;42.58;;;21.75;;
27402;SDS011;14862;49.494;8.530;2022-09-29T05:26:00;40.85;;;19.95;;
27402;SDS011;14862;49.494;8.530;2022-09-29T05:28:26;40.38;;;21.58;;
27402;SDS011;14862;49.494;8.530;2022-09-29T05:30:51;43.63;;;20.55;;
27402;SDS011;14862;49.494;8.530;2022-09-29T05:33:16;40.22;;;20.08;;
27402;SDS011;14862;49.494;8.530;2022-09-29T05:35:41;41.70;;;22.55;;
27402;SDS011;14862;49.494;8.530;2022-09-29T05:38:06;42.15;;;23.65;;
27402;SDS011;14862;49.494;8.530;2022-09-29T05:40:32;44.88;;;22.23;;
27402;SDS011;14862;49.494;8.530;2022-09-29T05:42:57;40.10;;;21.85;;
27402;SDS011;14862;49.494;8.530;2022-09-29T05:45:22;39.90;;;22.40;;
27402;SDS011;14862;49.494;8.530;2022-09-29T05:47:47;39.85;;;21.40;;
27402;SDS011;14862;49.494;8.530;2022-09-29T05:50:13;42.20;;;20.60;;
27402;SDS011;14862;49.494;8.530;2022-09-29T05:52:38;41.25;;;21.33;;
27402;SDS011;14862;49.494;8.530;2022-09-29T05:55:04;36.80;;;21.13;;
27402;SDS011;14862;49.494;8.530;2022-09-29T05:57:29;38.38;;;21.27;;
27402;SDS011;14862;49.494;8.530;2022-09-29T05:59:55;37.40;;;20.83;;
27402;SDS011;14862;49.494;8.530;2022-09-29T06:02:20;34.50;;;20.05;;
27402;SDS011;14862;49.494;8.530;2022-09-29T06:04:46;32.28;;;19.00;;
27402;SDS011;14862;49.494;8.530;2022-09-29T06:07:11;41.70;;;21.17;;
27402;SDS011;14862;49.494;8.530;2022-09-29T06:09:36;31.90;;;18.95;;
27402;SDS011;14862;49.494;8.530;2022-09-29T06:12:02;32.70;;;20.33;;
27402;SDS011;14862;49.494;8.530;2022-09-29T06:14:28;30.92;;;18.98;;
27402;SDS011;14862;49.494;8.530;2022-09-29T06:16:54;29.90;;;18.20;;
27402;SDS011;14862;49.494;8.530;2022-09-29T06:19:19;26.50;;;15.13;;
27402;SDS011;14862;49.494;8.530;2022-09-29T06:21:44;23.60;;;14.67;;
27402;SDS011;14862;49.494;8.530;2022-09-29T06:24:09;25.95;;;14.27;;
27402;SDS011;14862;49.494;8.530;2022-09-29T06:26:35;28.77;;;15.60;;
27402;SDS011;14862;49.494;8.530;2022-09-29T06:29:00;21.13;;;14.02;;
27402;SDS011;14862;49.494;8.530;2022-09-29T06:31:26;19.38;;;12.77;;
27402;SDS011;14862;49.494;8.530;2022-09-29T06:33:51;25.40;;;12.90;;
27402;SDS011;14862;49.494;8.530;2022-09-29T06:36:28;24.38;;;13.73;;
27402;SDS011;14862;49.494;8.530;2022-09-29T06:39:13;22.58;;;14.20;;
27402;SDS011;14862;49.494;8.530;2022-09-29T06:41:38;23.45;;;13.80;;
27402;SDS011;14862;49.494;8.530;2022-09-29T06:44:03;17.23;;;12.38;;
27402;SDS011;14862;49.494;8.530;2022-09-29T06:46:29;24.35;;;14.85;;
27402;SDS011;14862;49.494;8.530;2022-09-29T06:48:54;20.27;;;13.45;;
27402;SDS011;14862;49.494;8.530;2022-09-29T06:51:23;22.98;;;12.15;;
27402;SDS011;14862;49.494;8.530;2022-09-29T06:53:49;16.88;;;10.95;;
27402;SDS011;14862;49.494;8.530;2022-09-29T06:56:15;14.13;;;10.48;;
27402;SDS011;14862;49.494;8.530;2022-09-29T06:58:40;18.85;;;10.20;;
27402;SDS011;14862;49.494;8.530;2022-09-29T07:01:05;15.77;;;9.68;;
27402;SDS011;14862;49.494;8.530;2022-09-29T07:03:31;16.83;;;9.70;;
27402;SDS011;14862;49.494;8.530;2022-09-29T07:05:56;14.20;;;10.02;;
27402;SDS011;14862;49.494;8.530;2022-09-29T07:08:21;18.48;;;11.07;;
27402;SDS011;14862;49.494;8.530;2022-09-29T07:10:47;14.13;;;10.20;;
27402;SDS011;14862;49.494;8.530;2022-09-29T07:13:12;16.20;;;10.30;;
27402;SDS011;14862;49.494;8.530;2022-09-29T07:15:37;19.70;;;10.80;;
27402;SDS011;14862;49.494;8.530;2022-09-29T07:18:03;16.98;;;11.70;;
27402;SDS011;14862;49.494;8.530;2022-09-29T07:20:28;15.70;;;9.95;;
27402;SDS011;14862;49.494;8.530;2022-09-29T07:22:55;15.70;;;10.88;;
27402;SDS011;14862;49.494;8.530;2022-09-29T07:25:21;18.58;;;11.38;;
27402;SDS011;14862;49.494;8.530;2022-09-29T07:27:47;19.52;;;11.15;;
27402;SDS011;14862;49.494;8.530;2022-09-29T07:30:12;16.92;;;11.55;;
27402;SDS011;14862;49.494;8.530;2022-09-29T07:32:38;19.60;;;11.68;;
27402;SDS011;14862;49.494;8.530;2022-09-29T07:35:03;19.40;;;12.13;;
27402;SDS011;14862;49.494;8.530;2022-09-29T07:37:29;20.80;;;11.43;;
27402;SDS011;14862;49.494;8.530;2022-09-29T07:39:54;16.98;;;11.75;;
27402;SDS011;14862;49.494;8.530;2022-09-29T07:42:19;18.83;;;12.00;;
27402;SDS011;14862;49.494;8.530;2022-09-29T07:44:45;19.05;;;12.23;;
27402;SDS011;14862;49.494;8.530;2022-09-29T07:47:11;17.17;;;11.60;;
27402;SDS011;14862;49.494;8.530;2022-09-29T07:49:36;15.33;;;10.63;;
27402;SDS011;14862;49.494;8.530;2022-09-29T07:52:01;13.07;;;9.85;;
27402;SDS011;14862;49.494;8.530;2022-09-29T07:54:26;14.02;;;9.35;;
27402;SDS011;14862;49.494;8.530;2022-09-29T07:56:52;13.25;;;8.25;;
27402;SDS011;14862;49.494;8.530;2022-09-29T07:59:17;12.95;;;9.63;;
27402;SDS011;14862;49.494;8.530;2022-09-29T08:01:42;12.55;;;9.30;;
27402;SDS011;14862;49.494;8.530;2022-09-29T08:04:07;16.42;;;10.82;;
27402;SDS011;14862;49.494;8.530;2022-09-29T08:06:33;17.35;;;11.65;;
27402;SDS011;14862;49.494;8.530;2022-09-29T08:08:59;23.35;;;11.82;;
27402;SDS011;14862;49.494;8.530;2022-09-29T08:11:24;17.17;;;11.93;;
27402;SDS011;14862;49.494;8.530;2022-09-29T08:13:50;25.92;;;14.88;;
27402;SDS011;14862;49.494;8.530;2022-09-29T08:16:16;16.33;;;11.82;;
27402;SDS011;14862;49.494;8.530;2022-09-29T08:18:41;19.58;;;12.25;;
27402;SDS011;14862;49.494;8.530;2022-09-29T08:21:07;18.20;;;10.65;;
27402;SDS011;14862;49.494;8.530;2022-09-29T08:23:39;15.98;;;10.70;;
27402;SDS011;14862;49.494;8.530;2022-09-29T08:26:08;13.25;;;10.32;;
27402;SDS011;14862;49.494;8.530;2022-09-29T08:28:34;17.60;;;11.25;;
27402;SDS011;14862;49.494;8.530;2022-09-29T08:31:10;125.50;;;20.55;;
27402;SDS011;14862;49.494;8.530;2022-09-29T08:33:35;18.67;;;11.07;;
27402;SDS011;14862;49.494;8.530;2022-09-29T08:36:01;15.35;;;9.30;;
27402;SDS011;14862;49.494;8.530;2022-09-29T08:38:29;10.90;;;9.05;;
27402;SDS011;14862;49.494;8.530;2022-09-29T08:40:55;12.35;;;9.00;;
27402;SDS011;14862;49.494;8.530;2022-09-29T08:43:28;13.90;;;8.73;;
27402;SDS011;14862;49.494;8.530;2022-09-29T08:46:04;12.88;;;8.43;;
27402;SDS011;14862;49.494;8.530;2022-09-29T08:48:33;16.42;;;8.45;;
27402;SDS011;14862;49.494;8.530;2022-09-29T08:51:06;13.73;;;9.10;;
27402;SDS011;14862;49.494;8.530;2022-09-29T08:53:34;10.98;;;8.00;;
27402;SDS011;14862;49.494;8.530;2022-09-29T08:56:02;13.18;;;7.95;;
27402;SDS011;14862;49.494;8.530;2022-09-29T08:58:28;18.40;;;9.15;;
27402;SDS011;14862;49.494;8.530;2022-09-29T09:19:09;15.85;;;9.80;;
27402;SDS011;14862;49.494;8.530;2022-09-29T09:21:39;12.45;;;7.65;;
27402;SDS011;14862;49.494;8.530;2022-09-29T09:26:37;14.18;;;7.88;;
27402;SDS011;14862;49.494;8.530;2022-09-29T09:29:05;11.55;;;7.43;;
27402;SDS011;14862;49.494;8.530;2022-09-29T09:34:20;11.10;;;7.78;;
27402;SDS011;14862;49.494;8.530;2022-09-29T09:36:49;9.38;;;6.10;;
27402;SDS011;14862;49.494;8.530;2022-09-29T09:39:25;11.77;;;7.05;;
27402;SDS011;14862;49.494;8.530;2022-09-29T09:41:52;11.35;;;6.38;;
27402;SDS011;14862;49.494;8.530;2022-09-29T09:44:19;10.73;;;6.47;;
27402;SDS011;14862;49.494;8.530;2022-09-29T09:46:53;12.18;;;7.13;;
27402;SDS011;14862;49.494;8.530;2022-09-29T09:49:24;10.88;;;6.70;;
27402;SDS011;14862;49.494;8.530;2022-09-29T09:57:21;11.52;;;7.13;;
27402;SDS011;14862;49.494;8.530;2022-09-29T10:02:26;13.20;;;7.25;;
27402;SDS011;14862;49.494;8.530;2022-09-29T10:04:53;13.35;;;6.65;;
27402;SDS011;14862;49.494;8.530;2022-09-29T10:07:20;12.70;;;6.85;;
27402;SDS011;14862;49.494;8.530;2022-09-29T10:09:46;11.07;;;6.47;;
27402;SDS011;14862;49.494;8.530;2022-09-29T10:12:18;12.82;;;7.05;;
27402;SDS011;14862;49.494;8.530;2022-09-29T10:14:47;11.82;;;6.70;;
27402;SDS011;14862;49.494;8.530;2022-09-29T10:17:13;10.55;;;6.28;;
27402;SDS011;14862;49.494;8.530;2022-09-29T10:22:38;16.25;;;7.30;;
27402;SDS011;14862;49.494;8.530;2022-09-29T10:25:16;11.38;;;6.50;;
27402;SDS011;14862;49.494;8.530;2022-09-29T10:27:44;9.73;;;5.82;;
27402;SDS011;14862;49.494;8.530;2022-09-29T10:30:19;10.55;;;5.70;;
27402;SDS011;14862;49.494;8.530;2022-09-29T10:32:46;12.30;;;5.85;;
27402;SDS011;14862;49.494;8.530;2022-09-29T10:35:19;9.98;;;5.57;;
27402;SDS011;14862;49.494;8.530;2022-09-29T10:37:47;13.40;;;6.20;;
27402;SDS011;14862;49.494;8.530;2022-09-29T10:40:17;6.90;;;5.00;;
27402;SDS011;14862;49.494;8.530;2022-09-29T10:42:45;12.30;;;5.10;;
27402;SDS011;14862;49.494;8.530;2022-09-29T10:45:13;9.88;;;6.03;;
27402;SDS011;14862;49.494;8.530;2022-09-29T10:47:39;10.18;;;5.50;;
27402;SDS011;14862;49.494;8.530;2022-09-29T10:50:11;14.93;;;5.10;;
27402;SDS011;14862;49.494;8.530;2022-09-29T10:52:40;12.27;;;5.00;;
27402;SDS011;14862;49.494;8.530;2022-09-29T10:55:13;9.02;;;4.55;;
27402;SDS011;14862;49.494;8.530;2022-09-29T10:57:39;10.25;;;5.38;;
27402;SDS011;14862;49.494;8.530;2022-09-29T11:00:04;10.05;;;5.25;;
27402;SDS011;14862;49.494;8.530;2022-09-29T11:04:57;8.05;;;4.47;;
27402;SDS011;14862;49.494;8.530;2022-09-29T11:07:24;7.55;;;4.60;;
27402;SDS011;14862;49.494;8.530;2022-09-29T11:09:49;6.90;;;4.43;;
27402;SDS011;14862;49.494;8.530;2022-09-29T11:12:34;12.35;;;6.95;;
27402;SDS011;14862;49.494;8.530;2022-09-29T11:15:07;8.80;;;4.13;;
27402;SDS011;14862;49.494;8.530;2022-09-29T11:17:48;7.32;;;3.60;;
27402;SDS011;14862;49.494;8.530;2022-09-29T11:20:13;5.53;;;2.90;;
27402;SDS011;14862;49.494;8.530;2022-09-29T11:30:44;9.88;;;4.10;;
27402;SDS011;14862;49.494;8.530;2022-09-29T11:33:18;7.38;;;3.47;;
27402;SDS011;14862;49.494;8.530;2022-09-29T11:56:36;7.10;;;3.13;;
27402;SDS011;14862;49.494;8.530;2022-09-29T12:06:55;5.93;;;3.50;;
27402;SDS011;14862;49.494;8.530;2022-09-29T12:09:34;11.82;;;3.75;;
27402;SDS011;14862;49.494;8.530;2022-09-29T12:14:37;6.97;;;2.20;;
27402;SDS011;14862;49.494;8.530;2022-09-29T12:17:07;4.13;;;2.20;;
27402;SDS011;14862;49.494;8.530;2022-09-29T12:19:35;7.78;;;2.35;;
27402;SDS011;14862;49.494;8.530;2022-09-29T12:22:02;4.70;;;2.42;;
27402;SDS011;14862;49.494;8.530;2022-09-29T12:24:37;4.07;;;2.33;;
27402;SDS011;14862;49.494;8.530;2022-09-29T12:27:09;5.47;;;2.20;;
27402;SDS011;14862;49.494;8.530;2022-09-29T12:29:56;7.32;;;2.35;;
27402;SDS011;14862;49.494;8.530;2022-09-29T12:32:31;4.88;;;2.00;;
27402;SDS011;14862;49.494;8.530;2022-09-29T12:35:40;8.73;;;2.88;;
27402;SDS011;14862;49.494;8.530;2022-09-29T12:37:53;5.40;;;2.35;;
27402;SDS011;14862;49.494;8.530;2022-09-29T12:40:25;6.32;;;2.40;;
27402;SDS011;14862;49.494;8.530;2022-09-29T12:51:08;4.22;;;2.67;;
27402;SDS011;14862;49.494;8.530;2022-09-29T12:53:41;5.53;;;2.53;;
27402;SDS011;14862;49.494;8.530;2022-09-29T12:56:11;8.32;;;2.88;;
27402;SDS011;14862;49.494;8.530;2022-09-29T12:58:40;5.15;;;2.05;;
27402;SDS011;14862;49.494;8.530;2022-09-29T13:01:24;5.10;;;2.03;;
27402;SDS011;14862;49.494;8.530;2022-09-29T13:06:21;10.50;;;3.93;;
27402;SDS011;14862;49.494;8.530;2022-09-29T13:21:40;5.25;;;2.17;;
27402;SDS011;14862;49.494;8.530;2022-09-29T13:24:11;6.63;;;2.05;;
27402;SDS011;14862;49.494;8.530;2022-09-29T13:29:24;6.93;;;2.20;;
27402;SDS011;14862;49.494;8.530;2022-09-29T13:31:50;5.68;;;1.90;;
27402;SDS011;14862;49.494;8.530;2022-09-29T13:34:23;4.07;;;2.00;;
27402;SDS011;14862;49.494;8.530;2022-09-29T13:36:51;2.65;;;1.60;;
27402;SDS011;14862;49.494;8.530;2022-09-29T13:39:21;5.93;;;2.10;;
27402;SDS011;14862;49.494;8.530;2022-09-29T13:41:47;6.50;;;1.98;;
27402;SDS011;14862;49.494;8.530;2022-09-29T13:46:40;4.05;;;1.55;;
27402;SDS011;14862;49.494;8.530;2022-09-29T13:54:21;3.03;;;1.98;;
27402;SDS011;14862;49.494;8.530;2022-09-29T13:59:31;7.18;;;1.77;;
27402;SDS011;14862;49.494;8.530;2022-09-29T14:01:56;3.88;;;2.00;;
27402;SDS011;14862;49.494;8.530;2022-09-29T14:07:00;5.82;;;2.42;;
27402;SDS011;14862;49.494;8.530;2022-09-29T14:09:27;8.00;;;2.30;;
27402;SDS011;14862;49.494;8.530;2022-09-29T14:11:57;3.35;;;1.70;;
27402;SDS011;14862;49.494;8.530;2022-09-29T14:14:29;4.43;;;1.42;;
27402;SDS011;14862;49.494;8.530;2022-09-29T14:17:02;3.50;;;1.77;;
27402;SDS011;14862;49.494;8.530;2022-09-29T14:19:40;6.43;;;2.10;;
27402;SDS011;14862;49.494;8.530;2022-09-29T14:24:51;4.40;;;2.10;;
27402;SDS011;14862;49.494;8.530;2022-09-29T14:27:33;7.50;;;1.80;;
27402;SDS011;14862;49.494;8.530;2022-09-29T14:34:58;5.38;;;2.38;;
27402;SDS011;14862;49.494;8.530;2022-09-29T14:37:24;5.97;;;1.98;;
27402;SDS011;14862;49.494;8.530;2022-09-29T14:39:50;5.40;;;1.90;;
27402;SDS011;14862;49.494;8.530;2022-09-29T14:42:35;6.22;;;1.88;;
27402;SDS011;14862;49.494;8.530;2022-09-29T14:45:00;4.47;;;1.87;;
27402;SDS011;14862;49.494;8.530;2022-09-29T14:47:54;9.18;;;1.98;;
27402;SDS011;14862;49.494;8.530;2022-09-29T14:50:50;3.88;;;1.98;;
27402;SDS011;14862;49.494;8.530;2022-09-29T14:53:43;14.45;;;3.13;;
27402;SDS011;14862;49.494;8.530;2022-09-29T15:06:10;6.43;;;1.60;;
27402;SDS011;14862;49.494;8.530;2022-09-29T15:08:36;4.97;;;1.90;;
27402;SDS011;14862;49.494;8.530;2022-09-29T15:11:03;4.82;;;1.80;;
27402;SDS011;14862;49.494;8.530;2022-09-29T15:13:31;2.20;;;1.45;;
27402;SDS011;14862;49.494;8.530;2022-09-29T15:21:52;3.00;;;1.25;;
27402;SDS011;14862;49.494;8.530;2022-09-29T15:26:39;2.50;;;1.38;;
27402;SDS011;14862;49.494;8.530;2022-09-29T15:29:05;3.88;;;1.50;;
27402;SDS011;14862;49.494;8.530;2022-09-29T15:31:31;5.70;;;1.90;;
27402;SDS011;14862;49.494;8.530;2022-09-29T15:34:00;5.25;;;1.80;;
27402;SDS011;14862;49.494;8.530;2022-09-29T15:36:34;3.10;;;1.40;;
27402;SDS011;14862;49.494;8.530;2022-09-29T15:39:06;3.63;;;1.83;;
27402;SDS011;14862;49.494;8.530;2022-09-29T15:41:35;3.78;;;1.92;;
27402;SDS011;14862;49.494;8.530;2022-09-29T15:44:13;5.72;;;1.70;;
27402;SDS011;14862;49.494;8.530;2022-09-29T15:46:55;8.23;;;1.92;;
27402;SDS011;14862;49.494;8.530;2022-09-29T15:49:21;7.03;;;3.20;;
27402;SDS011;14862;49.494;8.530;2022-09-29T15:52:03;7.07;;;3.53;;
27402;SDS011;14862;49.494;8.530;2022-09-29T15:54:32;8.57;;;3.53;;
27402;SDS011;14862;49.494;8.530;2022-09-29T15:56:59;5.72;;;2.92;;
27402;SDS011;14862;49.494;8.530;2022-09-29T16:02:14;6.60;;;4.07;;
27402;SDS011;14862;49.494;8.530;2022-09-29T16:04:41;9.98;;;4.82;;
27402;SDS011;14862;49.494;8.530;2022-09-29T16:07:13;8.18;;;4.70;;
27402;SDS011;14862;49.494;8.530;2022-09-29T16:09:41;9.00;;;4.95;;
27402;SDS011;14862;49.494;8.530;2022-09-29T16:12:06;10.17;;;5.73;;
27402;SDS011;14862;49.494;8.530;2022-09-29T16:14:32;13.35;;;5.85;;
27402;SDS011;14862;49.494;8.530;2022-09-29T16:16:57;12.68;;;6.30;;
27402;SDS011;14862;49.494;8.530;2022-09-29T16:19:24;11.70;;;5.80;;
27402;SDS011;14862;49.494;8.530;2022-09-29T16:21:58;8.18;;;5.70;;
27402;SDS011;14862;49.494;8.530;2022-09-29T16:24:26;9.73;;;5.85;;
27402;SDS011;14862;49.494;8.530;2022-09-29T16:26:53;11.00;;;6.22;;
27402;SDS011;14862;49.494;8.530;2022-09-29T16:29:23;11.93;;;6.10;;
27402;SDS011;14862;49.494;8.530;2022-09-29T16:31:49;10.85;;;5.80;;
27402;SDS011;14862;49.494;8.530;2022-09-29T16:36:46;11.50;;;5.90;;
27402;SDS011;14862;49.494;8.530;2022-09-29T16:39:13;11.05;;;6.80;;
27402;SDS011;14862;49.494;8.530;2022-09-29T16:41:39;11.85;;;5.63;;
27402;SDS011;14862;49.494;8.530;2022-09-29T16:46:42;7.95;;;5.72;;
27402;SDS011;14862;49.494;8.530;2022-09-29T16:49:25;11.40;;;6.07;;
27402;SDS011;14862;49.494;8.530;2022-09-29T16:51:51;10.77;;;5.93;;
27402;SDS011;14862;49.494;8.530;2022-09-29T16:54:22;9.75;;;5.97;;
27402;SDS011;14862;49.494;8.530;2022-09-29T16:56:49;10.32;;;6.65;;
27402;SDS011;14862;49.494;8.530;2022-09-29T16:59:32;11.90;;;6.13;;
27402;SDS011;14862;49.494;8.530;2022-09-29T17:01:58;10.20;;;7.25;;
27402;SDS011;14862;49.494;8.530;2022-09-29T17:04:23;10.85;;;7.30;;
27402;SDS011;14862;49.494;8.530;2022-09-29T17:06:48;10.30;;;3.45;;
27402;SDS011;14862;49.494;8.530;2022-09-29T17:09:16;6.93;;;3.10;;
27402;SDS011;14862;49.494;8.530;2022-09-29T17:11:41;7.78;;;3.05;;
27402;SDS011;14862;49.494;8.530;2022-09-29T17:14:08;4.57;;;2.50;;
27402;SDS011;14862;49.494;8.530;2022-09-29T17:16:33;5.15;;;2.30;;
27402;SDS011;14862;49.494;8.530;2022-09-29T17:18:58;6.57;;;2.97;;
27402;SDS011;14862;49.494;8.530;2022-09-29T17:21:25;7.18;;;3.22;;
27402;SDS011;14862;49.494;8.530;2022-09-29T17:23:50;7.05;;;3.28;;
27402;SDS011;14862;49.494;8.530;2022-09-29T17:26:19;9.93;;;3.70;;
27402;SDS011;14862;49.494;8.530;2022-09-29T17:29:05;9.93;;;4.43;;
27402;SDS011;14862;49.494;8.530;2022-09-29T17:31:30;6.30;;;3.92;;
27402;SDS011;14862;49.494;8.530;2022-09-29T17:33:56;6.85;;;3.33;;
27402;SDS011;14862;49.494;8.530;2022-09-29T17:36:21;4.83;;;3.33;;
27402;SDS011;14862;49.494;8.530;2022-09-29T17:38:48;4.50;;;3.40;;
27402;SDS011;14862;49.494;8.530;2022-09-29T17:41:14;8.70;;;4.50;;
27402;SDS011;14862;49.494;8.530;2022-09-29T17:43:41;9.30;;;4.50;;
27402;SDS011;14862;49.494;8.530;2022-09-29T17:46:10;8.07;;;5.40;;